Terminal Aerodrome Forecast
Issued by NWS Bismarck, ND

Home | Current Version | Previous Version | Graphics & Text | Print | Product List | Glossary On
Versions: 1 2 3 4 5 6 7 8 9 10 11 12 13 14 15 16 17 18
827
FTUS43 KBIS 262333
TAFISN
TAF
KISN 262333Z 2700/2724 31011G20KT P6SM BKN100
     FM270200 29008KT P6SM SCT080
     FM270800 25004KT P6SM SCT120
     FM271300 28008KT P6SM FEW250
     FM271500 30012KT P6SM SCT050
     FM271800 30017G25KT P6SM VCSH BKN080
     FM272300 32017KT P6SM SCT130=

USA.gov is the U.S. government's official web portal to all federal, state and local government web resources and services.